sensor_id;sensor_type;location;lat;lon;timestamp;P1;durP1;ratioP1;P2;durP2;ratioP2
10661;SDS011;5379;51.034;7.006;2023-06-01T00:00:11;0.80;;;0.80;;
10661;SDS011;5379;51.034;7.006;2023-06-01T04:31:12;2.10;;;2.00;;
10661;SDS011;5379;51.034;7.006;2023-06-01T04:33:43;4.00;;;2.60;;
10661;SDS011;5379;51.034;7.006;2023-06-01T04:36:11;2.53;;;2.33;;
10661;SDS011;5379;51.034;7.006;2023-06-01T04:38:39;2.73;;;2.53;;
10661;SDS011;5379;51.034;7.006;2023-06-01T04:41:07;2.77;;;2.53;;
10661;SDS011;5379;51.034;7.006;2023-06-01T04:43:35;3.10;;;2.90;;
10661;SDS011;5379;51.034;7.006;2023-06-01T04:46:04;5.10;;;3.00;;
10661;SDS011;5379;51.034;7.006;2023-06-01T04:48:34;3.03;;;2.73;;
10661;SDS011;5379;51.034;7.006;2023-06-01T04:51:01;4.57;;;3.73;;
10661;SDS011;5379;51.034;7.006;2023-06-01T04:53:29;4.37;;;3.57;;
10661;SDS011;5379;51.034;7.006;2023-06-01T04:55:56;9.43;;;4.63;;
10661;SDS011;5379;51.034;7.006;2023-06-01T04:58:23;3.20;;;3.00;;
10661;SDS011;5379;51.034;7.006;2023-06-01T05:00:50;3.30;;;3.00;;
10661;SDS011;5379;51.034;7.006;2023-06-01T05:03:19;3.50;;;3.30;;
10661;SDS011;5379;51.034;7.006;2023-06-01T05:05:48;7.40;;;3.20;;
10661;SDS011;5379;51.034;7.006;2023-06-01T05:08:15;3.97;;;3.67;;
10661;SDS011;5379;51.034;7.006;2023-06-01T05:10:42;4.67;;;4.27;;
10661;SDS011;5379;51.034;7.006;2023-06-01T05:13:08;4.47;;;3.70;;
10661;SDS011;5379;51.034;7.006;2023-06-01T05:15:35;5.60;;;5.07;;
10661;SDS011;5379;51.034;7.006;2023-06-01T05:18:02;5.20;;;3.97;;
10661;SDS011;5379;51.034;7.006;2023-06-01T05:20:30;4.53;;;4.13;;
10661;SDS011;5379;51.034;7.006;2023-06-01T05:22:58;4.43;;;4.13;;
10661;SDS011;5379;51.034;7.006;2023-06-01T05:25:25;5.20;;;4.60;;
10661;SDS011;5379;51.034;7.006;2023-06-01T05:27:52;4.27;;;3.87;;
10661;SDS011;5379;51.034;7.006;2023-06-01T05:30:19;5.30;;;4.67;;
10661;SDS011;5379;51.034;7.006;2023-06-01T05:32:46;5.67;;;5.17;;
10661;SDS011;5379;51.034;7.006;2023-06-01T05:35:13;6.43;;;5.40;;
10661;SDS011;5379;51.034;7.006;2023-06-01T05:37:40;10.23;;;5.77;;
10661;SDS011;5379;51.034;7.006;2023-06-01T05:40:08;6.57;;;5.77;;
10661;SDS011;5379;51.034;7.006;2023-06-01T05:42:39;6.80;;;6.17;;
10661;SDS011;5379;51.034;7.006;2023-06-01T05:45:06;7.23;;;6.57;;
10661;SDS011;5379;51.034;7.006;2023-06-01T05:47:34;7.37;;;6.63;;
10661;SDS011;5379;51.034;7.006;2023-06-01T05:50:01;6.73;;;6.23;;
10661;SDS011;5379;51.034;7.006;2023-06-01T05:52:30;7.57;;;6.93;;
10661;SDS011;5379;51.034;7.006;2023-06-01T05:54:58;7.63;;;6.93;;
10661;SDS011;5379;51.034;7.006;2023-06-01T05:57:26;8.00;;;7.27;;
10661;SDS011;5379;51.034;7.006;2023-06-01T05:59:54;7.20;;;6.37;;
10661;SDS011;5379;51.034;7.006;2023-06-01T06:02:21;8.87;;;6.53;;
10661;SDS011;5379;51.034;7.006;2023-06-01T06:04:48;10.03;;;6.97;;
10661;SDS011;5379;51.034;7.006;2023-06-01T06:07:15;8.77;;;7.87;;
10661;SDS011;5379;51.034;7.006;2023-06-01T06:09:42;9.07;;;8.17;;
10661;SDS011;5379;51.034;7.006;2023-06-01T06:12:09;9.77;;;8.87;;
10661;SDS011;5379;51.034;7.006;2023-06-01T06:14:38;9.63;;;7.93;;
10661;SDS011;5379;51.034;7.006;2023-06-01T06:17:05;9.73;;;8.73;;
10661;SDS011;5379;51.034;7.006;2023-06-01T06:19:32;9.33;;;7.60;;
10661;SDS011;5379;51.034;7.006;2023-06-01T06:21:59;8.97;;;8.07;;
10661;SDS011;5379;51.034;7.006;2023-06-01T06:24:26;10.00;;;9.00;;
10661;SDS011;5379;51.034;7.006;2023-06-01T06:26:53;8.93;;;8.00;;
10661;SDS011;5379;51.034;7.006;2023-06-01T06:29:23;10.23;;;8.57;;
10661;SDS011;5379;51.034;7.006;2023-06-01T06:31:51;12.97;;;9.50;;
10661;SDS011;5379;51.034;7.006;2023-06-01T06:34:21;9.40;;;8.60;;
10661;SDS011;5379;51.034;7.006;2023-06-01T06:36:48;11.67;;;9.13;;
10661;SDS011;5379;51.034;7.006;2023-06-01T06:39:17;9.10;;;8.17;;
10661;SDS011;5379;51.034;7.006;2023-06-01T06:41:45;6.57;;;5.97;;
10661;SDS011;5379;51.034;7.006;2023-06-01T06:44:12;8.77;;;7.97;;
10661;SDS011;5379;51.034;7.006;2023-06-01T06:46:39;9.23;;;8.43;;
10661;SDS011;5379;51.034;7.006;2023-06-01T06:49:07;9.47;;;8.53;;
10661;SDS011;5379;51.034;7.006;2023-06-01T06:51:34;9.60;;;8.27;;
10661;SDS011;5379;51.034;7.006;2023-06-01T06:54:04;10.20;;;9.10;;
10661;SDS011;5379;51.034;7.006;2023-06-01T06:56:31;11.03;;;8.70;;
10661;SDS011;5379;51.034;7.006;2023-06-01T06:58:59;8.57;;;7.83;;
10661;SDS011;5379;51.034;7.006;2023-06-01T07:01:27;10.93;;;8.53;;
10661;SDS011;5379;51.034;7.006;2023-06-01T07:04:07;10.07;;;9.03;;
10661;SDS011;5379;51.034;7.006;2023-06-01T07:06:34;8.97;;;8.17;;
10661;SDS011;5379;51.034;7.006;2023-06-01T07:09:02;9.73;;;8.83;;
10661;SDS011;5379;51.034;7.006;2023-06-01T07:11:30;10.50;;;9.40;;
10661;SDS011;5379;51.034;7.006;2023-06-01T07:13:57;10.17;;;9.27;;
10661;SDS011;5379;51.034;7.006;2023-06-01T07:16:24;17.47;;;8.80;;
10661;SDS011;5379;51.034;7.006;2023-06-01T07:18:51;10.77;;;9.67;;
10661;SDS011;5379;51.034;7.006;2023-06-01T07:21:20;9.27;;;8.47;;
10661;SDS011;5379;51.034;7.006;2023-06-01T07:23:47;9.17;;;8.37;;
10661;SDS011;5379;51.034;7.006;2023-06-01T07:26:14;10.53;;;9.57;;
10661;SDS011;5379;51.034;7.006;2023-06-01T07:28:41;10.10;;;9.10;;
10661;SDS011;5379;51.034;7.006;2023-06-01T07:31:08;9.07;;;8.17;;
10661;SDS011;5379;51.034;7.006;2023-06-01T07:33:35;9.40;;;8.50;;
10661;SDS011;5379;51.034;7.006;2023-06-01T07:36:02;9.40;;;8.60;;
10661;SDS011;5379;51.034;7.006;2023-06-01T07:38:31;9.43;;;8.53;;
10661;SDS011;5379;51.034;7.006;2023-06-01T07:40:58;9.63;;;8.67;;
10661;SDS011;5379;51.034;7.006;2023-06-01T07:43:25;9.30;;;8.50;;
10661;SDS011;5379;51.034;7.006;2023-06-01T07:45:52;9.93;;;8.90;;
10661;SDS011;5379;51.034;7.006;2023-06-01T07:48:19;9.70;;;8.70;;
10661;SDS011;5379;51.034;7.006;2023-06-01T07:50:46;9.90;;;8.93;;
10661;SDS011;5379;51.034;7.006;2023-06-01T07:53:13;9.07;;;8.20;;
10661;SDS011;5379;51.034;7.006;2023-06-01T07:55:41;8.30;;;7.60;;
10661;SDS011;5379;51.034;7.006;2023-06-01T07:58:09;8.50;;;7.70;;
10661;SDS011;5379;51.034;7.006;2023-06-01T08:00:36;8.73;;;7.97;;
10661;SDS011;5379;51.034;7.006;2023-06-01T08:03:03;8.63;;;7.83;;
10661;SDS011;5379;51.034;7.006;2023-06-01T08:05:31;8.60;;;7.37;;
10661;SDS011;5379;51.034;7.006;2023-06-01T08:08:01;8.60;;;7.80;;
10661;SDS011;5379;51.034;7.006;2023-06-01T08:10:28;10.80;;;7.70;;
10661;SDS011;5379;51.034;7.006;2023-06-01T08:12:56;8.07;;;6.93;;
10661;SDS011;5379;51.034;7.006;2023-06-01T08:15:23;9.67;;;7.83;;
10661;SDS011;5379;51.034;7.006;2023-06-01T08:17:51;8.10;;;7.23;;
10661;SDS011;5379;51.034;7.006;2023-06-01T08:20:18;8.83;;;8.03;;
10661;SDS011;5379;51.034;7.006;2023-06-01T08:22:47;9.17;;;8.27;;
10661;SDS011;5379;51.034;7.006;2023-06-01T08:25:15;8.20;;;7.40;;
10661;SDS011;5379;51.034;7.006;2023-06-01T08:27:43;9.40;;;7.40;;
10661;SDS011;5379;51.034;7.006;2023-06-01T08:30:12;8.73;;;7.83;;
10661;SDS011;5379;51.034;7.006;2023-06-01T08:32:39;8.20;;;7.23;;
10661;SDS011;5379;51.034;7.006;2023-06-01T08:35:06;8.23;;;7.43;;
10661;SDS011;5379;51.034;7.006;2023-06-01T08:37:34;8.60;;;7.33;;
10661;SDS011;5379;51.034;7.006;2023-06-01T08:40:02;7.37;;;6.77;;
10661;SDS011;5379;51.034;7.006;2023-06-01T08:42:34;15.10;;;7.87;;
10661;SDS011;5379;51.034;7.006;2023-06-01T08:45:09;8.00;;;7.40;;
10661;SDS011;5379;51.034;7.006;2023-06-01T08:47:39;6.90;;;6.30;;
10661;SDS011;5379;51.034;7.006;2023-06-01T08:50:08;6.60;;;6.10;;
10661;SDS011;5379;51.034;7.006;2023-06-01T08:52:36;6.50;;;6.00;;
10661;SDS011;5379;51.034;7.006;2023-06-01T08:55:05;7.60;;;6.90;;
10661;SDS011;5379;51.034;7.006;2023-06-01T08:57:32;8.30;;;7.37;;
10661;SDS011;5379;51.034;7.006;2023-06-01T09:00:00;5.83;;;5.40;;
10661;SDS011;5379;51.034;7.006;2023-06-01T09:02:29;8.77;;;6.47;;
10661;SDS011;5379;51.034;7.006;2023-06-01T09:04:56;7.97;;;7.30;;
10661;SDS011;5379;51.034;7.006;2023-06-01T09:07:24;8.23;;;7.27;;
10661;SDS011;5379;51.034;7.006;2023-06-01T09:09:52;7.50;;;6.90;;
10661;SDS011;5379;51.034;7.006;2023-06-01T09:12:21;6.63;;;6.00;;
10661;SDS011;5379;51.034;7.006;2023-06-01T09:14:50;6.80;;;6.30;;
10661;SDS011;5379;51.034;7.006;2023-06-01T09:17:33;7.43;;;6.83;;
10661;SDS011;5379;51.034;7.006;2023-06-01T09:20:01;7.90;;;7.17;;
10661;SDS011;5379;51.034;7.006;2023-06-01T09:22:39;7.23;;;6.53;;
10661;SDS011;5379;51.034;7.006;2023-06-01T09:25:07;8.10;;;7.43;;
10661;SDS011;5379;51.034;7.006;2023-06-01T09:27:41;8.17;;;7.10;;
10661;SDS011;5379;51.034;7.006;2023-06-01T09:30:10;7.00;;;6.40;;
10661;SDS011;5379;51.034;7.006;2023-06-01T09:32:39;7.77;;;7.17;;
10661;SDS011;5379;51.034;7.006;2023-06-01T09:35:07;8.27;;;7.47;;
10661;SDS011;5379;51.034;7.006;2023-06-01T09:37:36;8.07;;;7.37;;
10661;SDS011;5379;51.034;7.006;2023-06-01T09:40:15;8.30;;;7.50;;
10661;SDS011;5379;51.034;7.006;2023-06-01T09:42:43;6.83;;;6.27;;
10661;SDS011;5379;51.034;7.006;2023-06-01T09:45:15;8.03;;;7.30;;
10661;SDS011;5379;51.034;7.006;2023-06-01T09:47:45;6.53;;;6.07;;
10661;SDS011;5379;51.034;7.006;2023-06-01T09:50:15;7.00;;;6.43;;
10661;SDS011;5379;51.034;7.006;2023-06-01T09:52:59;6.73;;;6.23;;
10661;SDS011;5379;51.034;7.006;2023-06-01T09:55:26;10.53;;;7.23;;
10661;SDS011;5379;51.034;7.006;2023-06-01T09:57:57;7.37;;;6.77;;
10661;SDS011;5379;51.034;7.006;2023-06-01T10:00:44;7.53;;;6.83;;
10661;SDS011;5379;51.034;7.006;2023-06-01T10:03:14;6.80;;;6.20;;
10661;SDS011;5379;51.034;7.006;2023-06-01T10:05:42;14.17;;;5.03;;
10661;SDS011;5379;51.034;7.006;2023-06-01T10:08:10;6.37;;;5.43;;
10661;SDS011;5379;51.034;7.006;2023-06-01T10:10:38;5.50;;;5.00;;
10661;SDS011;5379;51.034;7.006;2023-06-01T10:13:08;5.53;;;5.07;;
10661;SDS011;5379;51.034;7.006;2023-06-01T10:15:35;3.50;;;3.20;;
10661;SDS011;5379;51.034;7.006;2023-06-01T10:18:02;4.23;;;3.93;;
10661;SDS011;5379;51.034;7.006;2023-06-01T10:20:33;3.87;;;3.57;;
10661;SDS011;5379;51.034;7.006;2023-06-01T10:23:00;5.07;;;4.03;;
10661;SDS011;5379;51.034;7.006;2023-06-01T10:25:28;4.77;;;4.37;;
10661;SDS011;5379;51.034;7.006;2023-06-01T10:27:59;3.67;;;3.47;;
10661;SDS011;5379;51.034;7.006;2023-06-01T10:30:29;3.10;;;2.90;;
10661;SDS011;5379;51.034;7.006;2023-06-01T10:32:56;3.93;;;3.53;;
10661;SDS011;5379;51.034;7.006;2023-06-01T10:38:29;4.67;;;3.53;;
10661;SDS011;5379;51.034;7.006;2023-06-01T10:43:52;2.90;;;2.80;;
10661;SDS011;5379;51.034;7.006;2023-06-01T10:46:35;3.20;;;2.97;;
10661;SDS011;5379;51.034;7.006;2023-06-01T10:49:03;3.47;;;3.17;;
10661;SDS011;5379;51.034;7.006;2023-06-01T10:51:31;3.47;;;3.17;;
10661;SDS011;5379;51.034;7.006;2023-06-01T11:02:53;3.23;;;2.97;;
10661;SDS011;5379;51.034;7.006;2023-06-01T11:05:37;3.80;;;3.50;;
10661;SDS011;5379;51.034;7.006;2023-06-01T11:14:26;4.00;;;3.70;;
10661;SDS011;5379;51.034;7.006;2023-06-01T11:16:57;3.03;;;2.83;;
10661;SDS011;5379;51.034;7.006;2023-06-01T11:20:13;2.53;;;2.43;;
10661;SDS011;5379;51.034;7.006;2023-06-01T11:23:02;3.60;;;3.30;;
10661;SDS011;5379;51.034;7.006;2023-06-01T11:25:49;2.87;;;2.67;;
10661;SDS011;5379;51.034;7.006;2023-06-01T11:28:19;3.63;;;3.37;;
10661;SDS011;5379;51.034;7.006;2023-06-01T11:30:49;3.60;;;3.30;;
10661;SDS011;5379;51.034;7.006;2023-06-01T11:33:16;3.10;;;2.80;;
10661;SDS011;5379;51.034;7.006;2023-06-01T11:35:44;2.67;;;2.50;;
10661;SDS011;5379;51.034;7.006;2023-06-01T11:38:14;3.33;;;3.13;;
10661;SDS011;5379;51.034;7.006;2023-06-01T11:43:29;2.77;;;2.57;;
10661;SDS011;5379;51.034;7.006;2023-06-01T11:46:01;2.63;;;2.43;;
10661;SDS011;5379;51.034;7.006;2023-06-01T11:48:29;2.50;;;2.30;;
10661;SDS011;5379;51.034;7.006;2023-06-01T11:50:57;2.60;;;2.50;;
10661;SDS011;5379;51.034;7.006;2023-06-01T11:53:25;5.87;;;3.53;;
10661;SDS011;5379;51.034;7.006;2023-06-01T11:55:54;2.57;;;2.37;;
10661;SDS011;5379;51.034;7.006;2023-06-01T11:58:22;3.10;;;2.90;;
10661;SDS011;5379;51.034;7.006;2023-06-01T12:00:50;5.97;;;3.37;;
10661;SDS011;5379;51.034;7.006;2023-06-01T12:03:18;3.50;;;3.30;;
10661;SDS011;5379;51.034;7.006;2023-06-01T12:05:45;3.67;;;3.37;;
10661;SDS011;5379;51.034;7.006;2023-06-01T12:08:13;6.13;;;3.27;;
10661;SDS011;5379;51.034;7.006;2023-06-01T12:10:41;3.63;;;2.97;;
10661;SDS011;5379;51.034;7.006;2023-06-01T12:13:09;2.60;;;2.40;;
10661;SDS011;5379;51.034;7.006;2023-06-01T12:15:37;3.57;;;3.30;;
10661;SDS011;5379;51.034;7.006;2023-06-01T12:18:04;3.10;;;2.83;;
10661;SDS011;5379;51.034;7.006;2023-06-01T12:20:34;3.00;;;2.80;;
10661;SDS011;5379;51.034;7.006;2023-06-01T12:23:02;2.30;;;2.20;;
10661;SDS011;5379;51.034;7.006;2023-06-01T12:25:47;3.60;;;3.37;;
10661;SDS011;5379;51.034;7.006;2023-06-01T12:28:16;3.90;;;2.87;;
10661;SDS011;5379;51.034;7.006;2023-06-01T12:30:44;3.53;;;3.33;;
10661;SDS011;5379;51.034;7.006;2023-06-01T12:36:01;4.30;;;4.00;;
10661;SDS011;5379;51.034;7.006;2023-06-01T12:38:34;5.30;;;4.90;;
10661;SDS011;5379;51.034;7.006;2023-06-01T12:41:06;4.77;;;4.37;;
10661;SDS011;5379;51.034;7.006;2023-06-01T12:43:33;4.33;;;3.93;;
10661;SDS011;5379;51.034;7.006;2023-06-01T12:46:01;4.67;;;3.60;;
10661;SDS011;5379;51.034;7.006;2023-06-01T12:48:30;3.53;;;3.33;;
10661;SDS011;5379;51.034;7.006;2023-06-01T12:50:58;4.27;;;3.97;;
10661;SDS011;5379;51.034;7.006;2023-06-01T12:53:34;7.43;;;6.70;;
10661;SDS011;5379;51.034;7.006;2023-06-01T12:56:02;5.40;;;4.87;;
10661;SDS011;5379;51.034;7.006;2023-06-01T12:58:30;4.67;;;4.00;;
10661;SDS011;5379;51.034;7.006;2023-06-01T13:00:58;4.97;;;4.57;;
10661;SDS011;5379;51.034;7.006;2023-06-01T13:03:26;5.17;;;4.67;;
10661;SDS011;5379;51.034;7.006;2023-06-01T13:06:04;5.97;;;3.87;;
10661;SDS011;5379;51.034;7.006;2023-06-01T13:08:44;5.10;;;4.60;;
10661;SDS011;5379;51.034;7.006;2023-06-01T13:11:14;5.10;;;3.90;;
10661;SDS011;5379;51.034;7.006;2023-06-01T13:13:51;4.53;;;4.00;;
10661;SDS011;5379;51.034;7.006;2023-06-01T13:16:24;8.73;;;5.27;;
10661;SDS011;5379;51.034;7.006;2023-06-01T13:18:53;4.70;;;4.23;;
10661;SDS011;5379;51.034;7.006;2023-06-01T13:21:20;4.07;;;3.77;;
10661;SDS011;5379;51.034;7.006;2023-06-01T13:23:52;4.50;;;3.70;;
10661;SDS011;5379;51.034;7.006;2023-06-01T13:26:49;6.97;;;3.67;;
10661;SDS011;5379;51.034;7.006;2023-06-01T13:29:17;4.60;;;3.60;;
10661;SDS011;5379;51.034;7.006;2023-06-01T13:31:47;6.77;;;3.90;;
10661;SDS011;5379;51.034;7.006;2023-06-01T13:34:20;5.63;;;4.27;;
10661;SDS011;5379;51.034;7.006;2023-06-01T13:36:47;2.83;;;2.63;;
10661;SDS011;5379;51.034;7.006;2023-06-01T13:39:19;3.83;;;2.73;;
10661;SDS011;5379;51.034;7.006;2023-06-01T13:41:46;2.80;;;2.60;;
10661;SDS011;5379;51.034;7.006;2023-06-01T13:44:13;3.30;;;2.87;;
10661;SDS011;5379;51.034;7.006;2023-06-01T13:46:45;6.00;;;2.93;;
10661;SDS011;5379;51.034;7.006;2023-06-01T13:49:17;3.17;;;2.97;;
10661;SDS011;5379;51.034;7.006;2023-06-01T13:52:09;3.00;;;2.77;;
10661;SDS011;5379;51.034;7.006;2023-06-01T13:54:39;2.83;;;2.63;;
10661;SDS011;5379;51.034;7.006;2023-06-01T13:57:11;4.50;;;3.03;;
10661;SDS011;5379;51.034;7.006;2023-06-01T13:59:41;3.43;;;3.10;;
10661;SDS011;5379;51.034;7.006;2023-06-01T14:02:10;2.80;;;2.60;;
10661;SDS011;5379;51.034;7.006;2023-06-01T14:04:37;6.57;;;3.33;;
10661;SDS011;5379;51.034;7.006;2023-06-01T14:07:04;3.67;;;3.37;;
10661;SDS011;5379;51.034;7.006;2023-06-01T14:09:33;5.50;;;3.27;;
10661;SDS011;5379;51.034;7.006;2023-06-01T14:12:19;3.50;;;3.20;;
10661;SDS011;5379;51.034;7.006;2023-06-01T14:14:46;4.07;;;3.37;;
10661;SDS011;5379;51.034;7.006;2023-06-01T14:17:13;4.07;;;3.77;;
10661;SDS011;5379;51.034;7.006;2023-06-01T14:19:40;10.80;;;3.13;;
10661;SDS011;5379;51.034;7.006;2023-06-01T14:22:07;3.30;;;3.00;;
10661;SDS011;5379;51.034;7.006;2023-06-01T14:24:34;2.37;;;2.27;;
10661;SDS011;5379;51.034;7.006;2023-06-01T14:27:00;3.93;;;3.03;;
10661;SDS011;5379;51.034;7.006;2023-06-01T14:29:29;3.87;;;3.13;;
10661;SDS011;5379;51.034;7.006;2023-06-01T14:31:56;4.27;;;3.90;;
10661;SDS011;5379;51.034;7.006;2023-06-01T14:34:23;2.80;;;2.60;;
10661;SDS011;5379;51.034;7.006;2023-06-01T14:36:50;3.70;;;2.53;;
10661;SDS011;5379;51.034;7.006;2023-06-01T14:39:17;7.73;;;2.63;;
10661;SDS011;5379;51.034;7.006;2023-06-01T14:41:44;2.63;;;2.43;;
10661;SDS011;5379;51.034;7.006;2023-06-01T14:44:11;2.67;;;2.47;;
10661;SDS011;5379;51.034;7.006;2023-06-01T14:46:40;2.27;;;2.17;;
10661;SDS011;5379;51.034;7.006;2023-06-01T14:49:07;3.17;;;2.87;;
10661;SDS011;5379;51.034;7.006;2023-06-01T14:51:34;4.90;;;3.20;;
10661;SDS011;5379;51.034;7.006;2023-06-01T14:54:01;6.50;;;3.43;;
10661;SDS011;5379;51.034;7.006;2023-06-01T14:56:28;10.13;;;3.27;;
10661;SDS011;5379;51.034;7.006;2023-06-01T14:58:56;3.00;;;2.80;;
10661;SDS011;5379;51.034;7.006;2023-06-01T15:01:23;5.13;;;2.83;;
10661;SDS011;5379;51.034;7.006;2023-06-01T15:03:51;2.13;;;2.03;;
10661;SDS011;5379;51.034;7.006;2023-06-01T15:06:18;2.87;;;2.63;;
10661;SDS011;5379;51.034;7.006;2023-06-01T15:08:45;2.83;;;2.63;;
10661;SDS011;5379;51.034;7.006;2023-06-01T15:11:12;4.83;;;3.03;;
10661;SDS011;5379;51.034;7.006;2023-06-01T15:13:39;3.00;;;2.47;;
10661;SDS011;5379;51.034;7.006;2023-06-01T15:16:07;2.33;;;2.20;;
10661;SDS011;5379;51.034;7.006;2023-06-01T15:18:34;3.73;;;3.00;;
10661;SDS011;5379;51.034;7.006;2023-06-01T15:21:02;4.20;;;2.77;;
10661;SDS011;5379;51.034;7.006;2023-06-01T15:23:29;2.97;;;2.63;;
10661;SDS011;5379;51.034;7.006;2023-06-01T15:25:56;7.63;;;2.50;;
10661;SDS011;5379;51.034;7.006;2023-06-01T15:28:23;2.93;;;2.73;;
10661;SDS011;5379;51.034;7.006;2023-06-01T15:30:50;2.20;;;2.10;;
10661;SDS011;5379;51.034;7.006;2023-06-01T15:33:17;2.13;;;2.03;;
10661;SDS011;5379;51.034;7.006;2023-06-01T15:35:44;4.63;;;3.33;;
10661;SDS011;5379;51.034;7.006;2023-06-01T15:38:13;3.77;;;2.83;;
10661;SDS011;5379;51.034;7.006;2023-06-01T15:40:40;2.80;;;2.60;;
10661;SDS011;5379;51.034;7.006;2023-06-01T15:43:07;2.13;;;2.03;;
10661;SDS011;5379;51.034;7.006;2023-06-01T15:45:34;5.30;;;3.10;;
10661;SDS011;5379;51.034;7.006;2023-06-01T15:48:01;2.33;;;2.23;;
10661;SDS011;5379;51.034;7.006;2023-06-01T15:50:28;3.10;;;2.37;;
10661;SDS011;5379;51.034;7.006;2023-06-01T15:52:55;3.37;;;3.07;;
10661;SDS011;5379;51.034;7.006;2023-06-01T15:55:23;2.70;;;2.50;;
10661;SDS011;5379;51.034;7.006;2023-06-01T15:57:50;4.80;;;3.13;;
10661;SDS011;5379;51.034;7.006;2023-06-01T16:00:17;2.10;;;2.00;;
10661;SDS011;5379;51.034;7.006;2023-06-01T16:02:44;2.50;;;2.30;;
10661;SDS011;5379;51.034;7.006;2023-06-01T16:05:11;2.37;;;2.17;;
10661;SDS011;5379;51.034;7.006;2023-06-01T16:07:39;2.37;;;2.17;;
10661;SDS011;5379;51.034;7.006;2023-06-01T16:10:06;2.47;;;2.37;;
10661;SDS011;5379;51.034;7.006;2023-06-01T16:12:39;2.30;;;2.20;;
10661;SDS011;5379;51.034;7.006;2023-06-01T16:15:06;2.80;;;2.70;;
10661;SDS011;5379;51.034;7.006;2023-06-01T16:17:34;4.43;;;2.47;;
10661;SDS011;5379;51.034;7.006;2023-06-01T16:20:02;2.10;;;2.00;;
10661;SDS011;5379;51.034;7.006;2023-06-01T16:22:31;2.87;;;2.60;;
10661;SDS011;5379;51.034;7.006;2023-06-01T16:25:02;2.20;;;2.03;;
10661;SDS011;5379;51.034;7.006;2023-06-01T16:27:32;1.83;;;1.73;;
10661;SDS011;5379;51.034;7.006;2023-06-01T16:32:56;2.93;;;2.43;;
10661;SDS011;5379;51.034;7.006;2023-06-01T16:35:23;3.50;;;3.10;;
10661;SDS011;5379;51.034;7.006;2023-06-01T16:37:50;4.03;;;2.60;;
10661;SDS011;5379;51.034;7.006;2023-06-01T16:40:17;3.13;;;2.93;;
10661;SDS011;5379;51.034;7.006;2023-06-01T16:42:45;3.00;;;2.77;;
10661;SDS011;5379;51.034;7.006;2023-06-01T16:45:12;2.40;;;2.20;;
10661;SDS011;5379;51.034;7.006;2023-06-01T16:47:43;2.33;;;2.10;;
10661;SDS011;5379;51.034;7.006;2023-06-01T16:50:11;2.67;;;2.50;;
10661;SDS011;5379;51.034;7.006;2023-06-01T16:52:38;2.57;;;2.47;;
10661;SDS011;5379;51.034;7.006;2023-06-01T16:55:06;2.57;;;2.07;;
10661;SDS011;5379;51.034;7.006;2023-06-01T16:57:33;2.57;;;2.43;;
10661;SDS011;5379;51.034;7.006;2023-06-01T17:00:00;2.97;;;2.70;;
10661;SDS011;5379;51.034;7.006;2023-06-01T17:02:27;4.60;;;3.20;;
10661;SDS011;5379;51.034;7.006;2023-06-01T17:04:55;3.40;;;2.97;;
10661;SDS011;5379;51.034;7.006;2023-06-01T17:07:24;2.00;;;1.90;;
10661;SDS011;5379;51.034;7.006;2023-06-01T17:09:51;2.50;;;2.30;;
10661;SDS011;5379;51.034;7.006;2023-06-01T17:12:18;2.57;;;2.37;;
10661;SDS011;5379;51.034;7.006;2023-06-01T17:14:45;2.97;;;2.77;;
10661;SDS011;5379;51.034;7.006;2023-06-01T17:17:12;2.17;;;2.07;;
10661;SDS011;5379;51.034;7.006;2023-06-01T17:19:39;2.27;;;2.13;;
10661;SDS011;5379;51.034;7.006;2023-06-01T17:22:06;2.97;;;2.67;;
10661;SDS011;5379;51.034;7.006;2023-06-01T17:24:36;2.57;;;2.37;;
10661;SDS011;5379;51.034;7.006;2023-06-01T17:27:03;2.70;;;2.50;;
10661;SDS011;5379;51.034;7.006;2023-06-01T17:29:30;1.53;;;1.53;;
10661;SDS011;5379;51.034;7.006;2023-06-01T17:31:58;2.50;;;2.30;;
10661;SDS011;5379;51.034;7.006;2023-06-01T17:34:26;2.00;;;1.90;;
10661;SDS011;5379;51.034;7.006;2023-06-01T17:36:53;1.73;;;1.63;;
10661;SDS011;5379;51.034;7.006;2023-06-01T17:39:20;2.30;;;2.07;;
10661;SDS011;5379;51.034;7.006;2023-06-01T17:41:48;2.03;;;1.93;;
10661;SDS011;5379;51.034;7.006;2023-06-01T17:44:16;1.70;;;1.60;;
10661;SDS011;5379;51.034;7.006;2023-06-01T17:46:45;1.97;;;1.87;;
10661;SDS011;5379;51.034;7.006;2023-06-01T17:49:13;2.40;;;2.20;;
10661;SDS011;5379;51.034;7.006;2023-06-01T17:51:40;2.57;;;2.17;;
10661;SDS011;5379;51.034;7.006;2023-06-01T17:54:07;2.10;;;2.00;;
10661;SDS011;5379;51.034;7.006;2023-06-01T17:56:34;5.43;;;2.50;;
10661;SDS011;5379;51.034;7.006;2023-06-01T17:59:03;2.13;;;1.93;;
10661;SDS011;5379;51.034;7.006;2023-06-01T18:01:31;1.43;;;1.40;;
10661;SDS011;5379;51.034;7.006;2023-06-01T18:04:01;2.67;;;2.43;;
10661;SDS011;5379;51.034;7.006;2023-06-01T18:06:49;2.17;;;2.07;;
10661;SDS011;5379;51.034;7.006;2023-06-01T18:09:19;3.30;;;2.30;;
10661;SDS011;5379;51.034;7.006;2023-06-01T18:11:46;3.03;;;2.47;;
10661;SDS011;5379;51.034;7.006;2023-06-01T18:14:14;2.07;;;1.97;;
10661;SDS011;5379;51.034;7.006;2023-06-01T18:16:42;1.93;;;1.83;;
10661;SDS011;5379;51.034;7.006;2023-06-01T18:19:09;1.90;;;1.80;;
10661;SDS011;5379;51.034;7.006;2023-06-01T18:21:36;1.97;;;1.77;;
10661;SDS011;5379;51.034;7.006;2023-06-01T18:24:03;4.60;;;2.40;;
10661;SDS011;5379;51.034;7.006;2023-06-01T18:26:31;2.30;;;2.20;;
10661;SDS011;5379;51.034;7.006;2023-06-01T18:28:57;2.33;;;2.17;;
10661;SDS011;5379;51.034;7.006;2023-06-01T18:31:26;7.57;;;2.10;;
10661;SDS011;5379;51.034;7.006;2023-06-01T18:33:53;1.80;;;1.70;;
10661;SDS011;5379;51.034;7.006;2023-06-01T18:36:20;1.70;;;1.60;;
10661;SDS011;5379;51.034;7.006;2023-06-01T18:38:47;2.67;;;1.87;;
10661;SDS011;5379;51.034;7.006;2023-06-01T18:41:14;2.20;;;2.00;;
10661;SDS011;5379;51.034;7.006;2023-06-01T18:43:41;2.17;;;2.00;;
10661;SDS011;5379;51.034;7.006;2023-06-01T18:46:08;2.03;;;1.93;;
10661;SDS011;5379;51.034;7.006;2023-06-01T18:48:36;2.20;;;2.00;;
10661;SDS011;5379;51.034;7.006;2023-06-01T18:51:03;2.00;;;1.90;;
10661;SDS011;5379;51.034;7.006;2023-06-01T18:53:31;1.83;;;1.73;;
10661;SDS011;5379;51.034;7.006;2023-06-01T18:55:58;1.13;;;1.13;;
10661;SDS011;5379;51.034;7.006;2023-06-01T18:58:25;1.40;;;1.40;;
10661;SDS011;5379;51.034;7.006;2023-06-01T19:00:52;7.63;;;1.93;;
10661;SDS011;5379;51.034;7.006;2023-06-01T19:03:19;1.80;;;1.70;;
10661;SDS011;5379;51.034;7.006;2023-06-01T19:05:48;2.17;;;1.87;;
10661;SDS011;5379;51.034;7.006;2023-06-01T19:08:19;1.70;;;1.60;;
10661;SDS011;5379;51.034;7.006;2023-06-01T19:10:54;1.60;;;1.50;;
10661;SDS011;5379;51.034;7.006;2023-06-01T19:13:23;1.80;;;1.70;;
10661;SDS011;5379;51.034;7.006;2023-06-01T19:15:56;1.30;;;1.30;;
10661;SDS011;5379;51.034;7.006;2023-06-01T19:18:24;1.70;;;1.60;;
10661;SDS011;5379;51.034;7.006;2023-06-01T19:21:00;2.10;;;1.90;;
10661;SDS011;5379;51.034;7.006;2023-06-01T19:23:35;1.73;;;1.63;;
10661;SDS011;5379;51.034;7.006;2023-06-01T19:26:05;1.60;;;1.50;;
10661;SDS011;5379;51.034;7.006;2023-06-01T19:28:33;2.07;;;1.97;;
10661;SDS011;5379;51.034;7.006;2023-06-01T19:31:01;1.73;;;1.63;;
10661;SDS011;5379;51.034;7.006;2023-06-01T19:33:32;1.63;;;1.53;;
10661;SDS011;5379;51.034;7.006;2023-06-01T19:36:02;1.90;;;1.80;;
10661;SDS011;5379;51.034;7.006;2023-06-01T19:38:31;2.13;;;1.80;;
10661;SDS011;5379;51.034;7.006;2023-06-01T19:40:58;2.47;;;1.53;;
10661;SDS011;5379;51.034;7.006;2023-06-01T19:43:36;3.00;;;1.70;;
10661;SDS011;5379;51.034;7.006;2023-06-01T19:46:14;3.60;;;2.23;;
10661;SDS011;5379;51.034;7.006;2023-06-01T19:48:43;1.73;;;1.63;;
10661;SDS011;5379;51.034;7.006;2023-06-01T19:51:13;1.60;;;1.50;;
10661;SDS011;5379;51.034;7.006;2023-06-01T19:53:44;1.30;;;1.30;;
10661;SDS011;5379;51.034;7.006;2023-06-01T19:56:27;1.50;;;1.50;;
10661;SDS011;5379;51.034;7.006;2023-06-01T19:59:01;1.53;;;1.43;;
10661;SDS011;5379;51.034;7.006;2023-06-01T20:01:35;1.63;;;1.53;;
10661;SDS011;5379;51.034;7.006;2023-06-01T20:04:04;2.47;;;1.47;;
10661;SDS011;5379;51.034;7.006;2023-06-01T20:06:33;1.90;;;1.80;;
10661;SDS011;5379;51.034;7.006;2023-06-01T20:09:05;1.77;;;1.67;;